Spabunker 51 — ECNA — position and weather

sailwx.info

Track history (hours):
 
Tides and Currents Weather Stations Pressure Air Temp Water Temp Dewpoint Dewpoint Depression Visibility Wind Speed Wind Dir Waves Ship Positions

Spabunker 51

Last reported at 2017-Jun-27 02:00 UTC. Time now 2017-Jun-27 02:06 UTC.
Position N 36°05' W 005°24'.

Length 84 m; draft 5.8 m.

Type: Tanker. MMSI: 224322240.

Date/timePositionNaut miles runAvg speedWind from/ knotsBaromVisibWave heightAir tempDewpointWater temp
2017-Jun-27 02:00N 36°05' W 005°24'0 0.1
2017-Jun-27 01:30N 36°05' W 005°24'0 0.1
2017-Jun-27 01:00N 36°05' W 005°24'0 0.3
2017-Jun-27 00:30N 36°05' W 005°24'0 0.1
2017-Jun-27 00:00N 36°05' W 005°24'0 0.0
2017-Jun-26 23:30N 36°05' W 005°24'0 0.1
2017-Jun-26 23:00N 36°05' W 005°24'0 0.2
2017-Jun-26 22:30N 36°05' W 005°24'0 0.1
2017-Jun-26 22:01N 36°05' W 005°24'0 0.1
2017-Jun-26 21:30N 36°05' W 005°24'0 0.3
2017-Jun-26 21:00N 36°05' W 005°24'0 0.0
2017-Jun-26 20:30N 36°05' W 005°24'0 0.0
2017-Jun-26 20:01N 36°05' W 005°24'0 0.1
2017-Jun-26 19:30N 36°05' W 005°24'0 0.1
2017-Jun-26 19:00N 36°05' W 005°24'2 3.9
2017-Jun-26 18:28N 36°06' W 005°25'0 0.1
2017-Jun-26 18:00N 36°06' W 005°25'0 0.9
2017-Jun-26 17:30N 36°07' W 005°25'1 1.2
2017-Jun-26 16:42N 36°08' W 005°25'0 0.0
2017-Jun-26 16:30N 36°08' W 005°25'0 0.0
2017-Jun-26 15:56N 36°08' W 005°25'0 0.0
2017-Jun-26 13:49N 36°08' W 005°25'1 0.3
2017-Jun-26 08:43N 36°09' W 005°26'0 0.0
2017-Jun-26 08:26N 36°09' W 005°26'0 0.0
2017-Jun-26 07:56N 36°09' W 005°26'0 0.0
2017-Jun-26 07:29N 36°09' W 005°26'0 0.0
2017-Jun-26 07:00N 36°09' W 005°26'0 0.0
2017-Jun-26 06:30N 36°09' W 005°26'0 0.0
2017-Jun-26 05:59N 36°09' W 005°26'0 0.0
2017-Jun-26 05:30N 36°09' W 005°26'0 0.0
2017-Jun-26 05:00N 36°09' W 005°26'0 0.0
2017-Jun-26 04:26N 36°09' W 005°26'0 0.0
2017-Jun-26 04:00N 36°09' W 005°26'0 0.0
2017-Jun-26 03:30N 36°09' W 005°26'0 0.0
2017-Jun-26 03:00N 36°09' W 005°26'0 0.0
2017-Jun-26 02:30N 36°09' W 005°26'0 0.0
2017-Jun-26 02:00N 36°09' W 005°26'0 0.0
2017-Jun-26 01:30N 36°09' W 005°26'0 0.0
2017-Jun-26 01:00N 36°09' W 005°26'0 0.0
2017-Jun-26 00:28N 36°09' W 005°26'1 1.3
2017-Jun-26 00:00N 36°08' W 005°26'0 0.0
2017-Jun-25 23:30N 36°08' W 005°26'0 0.0
2017-Jun-25 22:59N 36°08' W 005°26'0 0.0
2017-Jun-25 22:10N 36°08' W 005°26'0 0.1
2017-Jun-25 14:55N 36°09' W 005°26'0 0.0
2017-Jun-25 13:59N 36°09' W 005°26'0 0.0
2017-Jun-25 13:10N 36°09' W 005°26'0 0.0
2017-Jun-25 13:00N 36°09' W 005°26'0 0.0
2017-Jun-25 08:58N 36°09' W 005°26'0 0.6
2017-Jun-25 08:29N 36°09' W 005°26'0 0.0
2017-Jun-25 08:00N 36°09' W 005°26'0 0.0
2017-Jun-25 07:29N 36°09' W 005°26'0 0.0
2017-Jun-25 06:58N 36°09' W 005°26'0 0.0
2017-Jun-25 06:30N 36°09' W 005°26'0 0.0
2017-Jun-25 05:59N 36°09' W 005°26'0 0.0
2017-Jun-25 05:15N 36°09' W 005°26'0 0.0
2017-Jun-25 05:00N 36°09' W 005°26'0 0.0
2017-Jun-25 04:30N 36°09' W 005°26'0 0.0
2017-Jun-25 04:00N 36°09' W 005°26'0 0.0
2017-Jun-25 03:30N 36°09' W 005°26'0 0.0
2017-Jun-25 02:58N 36°09' W 005°26'0 0.0
2017-Jun-25 02:29N 36°09' W 005°26'0 0.0
2017-Jun-25 02:00N 36°09' W 005°26'0 0.0
2017-Jun-25 01:30N 36°09' W 005°26'0 0.0
2017-Jun-25 00:17N 36°09' W 005°26'0 0.0
2017-Jun-25 00:00N 36°09' W 005°26'0 0.0
2017-Jun-24 23:20N 36°09' W 005°26'0 0.1
2017-Jun-24 23:00N 36°09' W 005°26'3 4.9
2017-Jun-24 22:29N 36°11' W 005°24'0 0.3
2017-Jun-24 21:59N 36°11' W 005°24'0 0.0
2017-Jun-24 21:24N 36°11' W 005°24'0 0.0
2017-Jun-24 20:59N 36°11' W 005°24'0 0.0
2017-Jun-24 20:30N 36°11' W 005°24'0 0.0
2017-Jun-24 20:00N 36°11' W 005°24'0 0.0
2017-Jun-24 19:31N 36°11' W 005°24'0 0.0
2017-Jun-24 19:00N 36°11' W 005°24'0 0.0
2017-Jun-24 18:31N 36°11' W 005°24'0 0.0
2017-Jun-24 18:00N 36°11' W 005°24'0 0.0
2017-Jun-24 17:30N 36°11' W 005°24'0 0.0
2017-Jun-24 17:00N 36°11' W 005°24'0 0.0
2017-Jun-24 16:30N 36°11' W 005°24'0 0.0
2017-Jun-24 15:59N 36°11' W 005°24'0 0.7
2017-Jun-24 15:30N 36°11' W 005°23'1 0.1
2017-Jun-24 09:26N 36°10' W 005°23'0 0.2
2017-Jun-24 08:43N 36°10' W 005°23'1 2.2
2017-Jun-24 08:20N 36°09' W 005°24'2 4.6
2017-Jun-24 07:59N 36°09' W 005°26'0 0.1
2017-Jun-24 07:30N 36°09' W 005°26'0 0.0
2017-Jun-24 07:00N 36°09' W 005°26'0 0.0
2017-Jun-24 06:30N 36°09' W 005°26'0 0.0
2017-Jun-24 06:01N 36°09' W 005°26'0 0.0
2017-Jun-24 05:30N 36°09' W 005°26'0 0.0
2017-Jun-24 05:00N 36°09' W 005°26'0 0.0
2017-Jun-24 04:30N 36°09' W 005°26'0 0.0
2017-Jun-24 04:01N 36°09' W 005°26'2 4.7
2017-Jun-24 03:30N 36°11' W 005°24'0 0.0
2017-Jun-24 03:00N 36°11' W 005°24'0 0.0
2017-Jun-24 02:30N 36°11' W 005°24'0 0.0
2017-Jun-24 02:01N 36°11' W 005°24'0 0.0
2017-Jun-24 01:31N 36°11' W 005°24'0 0.0
2017-Jun-24 01:00N 36°11' W 005°24'0 0.0
2017-Jun-24 00:28N 36°11' W 005°24'0 0.0
2017-Jun-24 00:01N 36°11' W 005°24'0 0.0
2017-Jun-23 23:30N 36°11' W 005°24'0 0.0
2017-Jun-23 23:01N 36°11' W 005°24'0 0.0
2017-Jun-23 22:30N 36°11' W 005°24'0 0.0
2017-Jun-23 22:00N 36°11' W 005°24'0 0.0
2017-Jun-23 21:30N 36°11' W 005°24'1 1.3
2017-Jun-23 21:00N 36°10' W 005°25'0 0.3
2017-Jun-23 20:30N 36°10' W 005°25'4 4.0
2017-Jun-23 19:30N 36°06' W 005°24'1 2.2
2017-Jun-23 19:01N 36°05' W 005°24'0 0.2
2017-Jun-23 18:30N 36°05' W 005°24'0 0.0
2017-Jun-23 18:00N 36°05' W 005°24'0 0.1
2017-Jun-23 17:30N 36°05' W 005°24'0 0.1
2017-Jun-23 17:00N 36°05' W 005°24'0 0.1
2017-Jun-23 16:30N 36°05' W 005°24'0 0.1
2017-Jun-23 16:00N 36°05' W 005°24'0 0.1
2017-Jun-23 15:30N 36°05' W 005°24'0 0.1
2017-Jun-23 15:00N 36°05' W 005°24'0 0.1
2017-Jun-23 14:00N 36°05' W 005°24'0 0.1
2017-Jun-23 13:14N 36°05' W 005°24'0 0.0
2017-Jun-23 13:00N 36°05' W 005°24'0 0.0
2017-Jun-23 12:30N 36°05' W 005°24'0 0.0
2017-Jun-23 12:00N 36°05' W 005°24'0 0.0
2017-Jun-23 11:30N 36°05' W 005°24'0 0.1
2017-Jun-23 11:00N 36°05' W 005°24'0 0.2
2017-Jun-23 10:31N 36°05' W 005°24'0 0.1
2017-Jun-23 09:54N 36°05' W 005°24'0 0.1
2017-Jun-23 09:27N 36°05' W 005°24'2 3.6
2017-Jun-23 08:58N 36°07' W 005°25'2 2.6
2017-Jun-23 08:19N 36°08' W 005°26'0 0.1
2017-Jun-23 07:50N 36°08' W 005°26'0 0.0
2017-Jun-23 03:56N 36°08' W 005°26'0 0.0
2017-Jun-23 03:29N 36°08' W 005°26'0 0.0
2017-Jun-23 02:59N 36°08' W 005°26'0 0.0
2017-Jun-23 02:30N 36°08' W 005°26'0 0.0
2017-Jun-23 01:45N 36°08' W 005°26'0 0.0
2017-Jun-23 01:17N 36°08' W 005°26'0 0.0
2017-Jun-23 00:50N 36°08' W 005°26'0 0.0
2017-Jun-23 00:30N 36°08' W 005°26'0 0.0
2017-Jun-22 23:59N 36°08' W 005°26'0 0.0
2017-Jun-22 23:30N 36°08' W 005°26'0 0.0
2017-Jun-22 22:48N 36°08' W 005°26'0 1.0
2017-Jun-22 22:29N 36°08' W 005°26'3 5.5
2017-Jun-22 22:00N 36°11' W 005°24'0 0.0
2017-Jun-22 21:30N 36°11' W 005°24'0 0.0
2017-Jun-22 19:27N 36°11' W 005°24'0 0.0
2017-Jun-22 18:59N 36°11' W 005°24'0 0.0
2017-Jun-22 18:20N 36°11' W 005°24'0 0.0
2017-Jun-22 18:00N 36°11' W 005°24'0 0.0
2017-Jun-22 17:30N 36°11' W 005°24'0 0.0
2017-Jun-22 16:57N 36°11' W 005°24'0 0.0
2017-Jun-22 16:30N 36°11' W 005°24'0 0.0
2017-Jun-22 15:16N 36°11' W 005°24'2 0.9
2017-Jun-22 13:25N 36°10' W 005°26'0 0.1
2017-Jun-22 13:00N 36°10' W 005°26'0 0.0
2017-Jun-22 10:10N 36°10' W 005°26'0 0.0
2017-Jun-22 09:22N 36°10' W 005°26'0 0.1
2017-Jun-22 08:49N 36°10' W 005°26'0 0.1
2017-Jun-22 08:23N 36°10' W 005°26'0 0.1
2017-Jun-22 07:43N 36°10' W 005°26'0 0.1
2017-Jun-22 07:26N 36°10' W 005°26'0 0.0
2017-Jun-22 06:58N 36°10' W 005°26'0 0.0
2017-Jun-22 06:29N 36°10' W 005°26'0 0.0
2017-Jun-22 05:53N 36°10' W 005°26'0 0.0
2017-Jun-22 05:22N 36°10' W 005°26'0 0.1
2017-Jun-22 05:00N 36°10' W 005°26'0 0.0
2017-Jun-22 04:30N 36°10' W 005°26'0 0.0
2017-Jun-22 03:59N 36°10' W 005°26'0 0.0
2017-Jun-22 03:30N 36°10' W 005°26'0 0.0
2017-Jun-22 02:37N 36°10' W 005°26'0 0.0
2017-Jun-22 02:25N 36°10' W 005°26'0 0.1
2017-Jun-22 02:00N 36°10' W 005°26'0 0.4
2017-Jun-22 01:30N 36°10' W 005°26'1 1.5
2017-Jun-22 00:50N 36°09' W 005°26'0 0.4
2017-Jun-22 00:13N 36°09' W 005°26'0 0.0
2017-Jun-21 23:59N 36°09' W 005°26'0 0.0
2017-Jun-21 23:30N 36°09' W 005°26'0 0.0
2017-Jun-21 23:00N 36°09' W 005°26'0 0.0
2017-Jun-21 22:26N 36°09' W 005°26'0 0.0
2017-Jun-21 21:04N 36°09' W 005°26'0 0.1
2017-Jun-21 20:59N 36°09' W 005°26'0 0.0
2017-Jun-21 20:30N 36°09' W 005°26'0 0.0
2017-Jun-21 20:00N 36°09' W 005°26'0 0.0
2017-Jun-21 05:04N 36°09' W 005°26'0 0.0
2017-Jun-21 04:46N 36°09' W 005°26'0 0.0
2017-Jun-21 04:29N 36°09' W 005°26'0 0.0
2017-Jun-20 18:32N 36°08' W 005°26'0 0.6
2017-Jun-20 18:24N 36°08' W 005°26'0 0.4
2017-Jun-20 18:00N 36°08' W 005°26'0 0.0
2017-Jun-20 17:21N 36°08' W 005°26'3 0.2
2017-Jun-20 01:56N 36°06' W 005°24'3 7.1
2017-Jun-20 01:30N 36°08' W 005°25'1 0.1
2017-Jun-19 20:13N 36°09' W 005°26'0 0.0
2017-Jun-19 19:59N 36°09' W 005°26'0 0.0
2017-Jun-19 19:30N 36°09' W 005°26'0 0.0
2017-Jun-19 19:00N 36°09' W 005°26'0 0.0
2017-Jun-19 18:29N 36°09' W 005°26'0 0.0
2017-Jun-19 17:59N 36°09' W 005°26'0 0.0
2017-Jun-19 17:29N 36°09' W 005°26'0 0.0
2017-Jun-19 17:00N 36°09' W 005°26'0 0.0
2017-Jun-19 16:30N 36°09' W 005°26'0 0.0
2017-Jun-19 15:59N 36°09' W 005°26'0 0.0
2017-Jun-19 15:30N 36°09' W 005°26'0 0.1
2017-Jun-19 12:06N 36°09' W 005°26'0 0.2
2017-Jun-19 09:27N 36°08' W 005°26'0 0.0
2017-Jun-19 08:38N 36°08' W 005°26'0 0.0
2017-Jun-19 08:26N 36°08' W 005°26'3 0.4
2017-Jun-19 01:02N 36°11' W 005°24'0 0.0
2017-Jun-19 01:00N 36°11' W 005°24'3 0.5
2017-Jun-18 19:23N 36°09' W 005°26'0 0.0
2017-Jun-18 19:00N 36°09' W 005°26'0 0.0
2017-Jun-18 18:30N 36°09' W 005°26'0 0.0
2017-Jun-18 18:00N 36°09' W 005°26'0 0.0
2017-Jun-18 17:30N 36°09' W 005°26'0 0.0
2017-Jun-18 17:01N 36°09' W 005°26'0 0.0
2017-Jun-18 16:30N 36°09' W 005°26'0 0.0
2017-Jun-18 15:59N 36°09' W 005°26'0 0.0
2017-Jun-18 15:30N 36°09' W 005°26'0 0.0
2017-Jun-18 15:00N 36°09' W 005°26'0 0.0
2017-Jun-18 14:00N 36°09' W 005°26'0 0.0
2017-Jun-18 13:30N 36°09' W 005°26'0 0.0
2017-Jun-18 12:57N 36°09' W 005°26'0 0.0
2017-Jun-18 12:23N 36°09' W 005°26'0 0.8
2017-Jun-18 11:57N 36°08' W 005°26'0 0.6
2017-Jun-18 11:30N 36°08' W 005°26'0 0.0
2017-Jun-18 11:00N 36°08' W 005°26'0 0.0
2017-Jun-18 10:30N 36°08' W 005°26'0 0.0
2017-Jun-18 05:43N 36°08' W 005°26'0 0.0
2017-Jun-18 05:12N 36°08' W 005°26'0 0.0
2017-Jun-18 04:47N 36°08' W 005°26'0 0.0
2017-Jun-18 04:20N 36°08' W 005°26'0 0.0
2017-Jun-18 04:00N 36°08' W 005°26'0 0.1
2017-Jun-17 23:58N 36°08' W 005°26'0 0.0
2017-Jun-17 23:30N 36°08' W 005°26'0 0.0
2017-Jun-17 21:17N 36°08' W 005°26'0 0.0
2017-Jun-17 20:47N 36°08' W 005°26'0 0.0
2017-Jun-17 20:29N 36°08' W 005°26'0 0.0
2017-Jun-17 20:00N 36°08' W 005°26'0 0.0
2017-Jun-17 19:27N 36°08' W 005°26'0 0.0
2017-Jun-17 19:00N 36°08' W 005°26'0 0.0
2017-Jun-17 18:30N 36°08' W 005°26'0 0.0
2017-Jun-17 17:57N 36°08' W 005°26'0 0.0
2017-Jun-17 17:30N 36°08' W 005°26'0 0.0
2017-Jun-17 16:59N 36°08' W 005°26'0 0.0
2017-Jun-17 16:30N 36°08' W 005°26'0 0.0
2017-Jun-17 16:00N 36°08' W 005°26'0 0.0
2017-Jun-17 15:30N 36°08' W 005°26'0 0.0
2017-Jun-17 14:59N 36°08' W 005°26'0 0.0
2017-Jun-17 14:29N 36°08' W 005°26'0 0.0
2017-Jun-17 13:30N 36°08' W 005°26'0 0.0
2017-Jun-17 13:00N 36°08' W 005°26'0 0.0
2017-Jun-17 12:29N 36°08' W 005°26'0 0.0
2017-Jun-17 12:00N 36°08' W 005°26'0 0.0
2017-Jun-17 11:28N 36°08' W 005°26'0 0.0
2017-Jun-17 11:00N 36°08' W 005°26'0 0.0
2017-Jun-17 10:30N 36°08' W 005°26'1 0.3
2017-Jun-17 06:23N 36°10' W 005°26'0 0.0
2017-Jun-17 03:49N 36°10' W 005°26'0 0.0
2017-Jun-17 03:31N 36°10' W 005°26'0 0.0
2017-Jun-17 03:00N 36°10' W 005°26'  
Track history (hours):
 
Tides and Currents Weather Stations Pressure Air Temp Water Temp Dewpoint Dewpoint Depression Visibility Wind Speed Wind Dir Waves Ship Positions

Spabunker 51

Last reported at 2017-Jun-27 02:00 UTC. Time now 2017-Jun-27 02:06 UTC.
Position N 36°05' W 005°24'.

Length 84 m; draft 5.8 m.

Type: Tanker. MMSI: 224322240.

Date/timePositionNaut miles runAvg speedWind from/ knotsBaromVisibWave heightAir tempDewpointWater temp
2017-Jun-27 02:00N 36°05' W 005°24'0 0.1
2017-Jun-27 01:30N 36°05' W 005°24'0 0.1
2017-Jun-27 01:00N 36°05' W 005°24'0 0.3
2017-Jun-27 00:30N 36°05' W 005°24'0 0.1
2017-Jun-27 00:00N 36°05' W 005°24'0 0.0
2017-Jun-26 23:30N 36°05' W 005°24'0 0.1
2017-Jun-26 23:00N 36°05' W 005°24'0 0.2
2017-Jun-26 22:30N 36°05' W 005°24'0 0.1
2017-Jun-26 22:01N 36°05' W 005°24'0 0.1
2017-Jun-26 21:30N 36°05' W 005°24'0 0.3
2017-Jun-26 21:00N 36°05' W 005°24'0 0.0
2017-Jun-26 20:30N 36°05' W 005°24'0 0.0
2017-Jun-26 20:01N 36°05' W 005°24'0 0.1
2017-Jun-26 19:30N 36°05' W 005°24'0 0.1
2017-Jun-26 19:00N 36°05' W 005°24'2 3.9
2017-Jun-26 18:28N 36°06' W 005°25'0 0.1
2017-Jun-26 18:00N 36°06' W 005°25'0 0.9
2017-Jun-26 17:30N 36°07' W 005°25'1 1.2
2017-Jun-26 16:42N 36°08' W 005°25'0 0.0
2017-Jun-26 16:30N 36°08' W 005°25'0 0.0
2017-Jun-26 15:56N 36°08' W 005°25'0 0.0
2017-Jun-26 13:49N 36°08' W 005°25'1 0.3
2017-Jun-26 08:43N 36°09' W 005°26'0 0.0
2017-Jun-26 08:26N 36°09' W 005°26'0 0.0
2017-Jun-26 07:56N 36°09' W 005°26'0 0.0
2017-Jun-26 07:29N 36°09' W 005°26'0 0.0
2017-Jun-26 07:00N 36°09' W 005°26'0 0.0
2017-Jun-26 06:30N 36°09' W 005°26'0 0.0
2017-Jun-26 05:59N 36°09' W 005°26'0 0.0
2017-Jun-26 05:30N 36°09' W 005°26'0 0.0
2017-Jun-26 05:00N 36°09' W 005°26'0 0.0
2017-Jun-26 04:26N 36°09' W 005°26'0 0.0
2017-Jun-26 04:00N 36°09' W 005°26'0 0.0
2017-Jun-26 03:30N 36°09' W 005°26'0 0.0
2017-Jun-26 03:00N 36°09' W 005°26'0 0.0
2017-Jun-26 02:30N 36°09' W 005°26'0 0.0
2017-Jun-26 02:00N 36°09' W 005°26'0 0.0
2017-Jun-26 01:30N 36°09' W 005°26'0 0.0
2017-Jun-26 01:00N 36°09' W 005°26'0 0.0
2017-Jun-26 00:28N 36°09' W 005°26'1 1.3
2017-Jun-26 00:00N 36°08' W 005°26'0 0.0
2017-Jun-25 23:30N 36°08' W 005°26'0 0.0
2017-Jun-25 22:59N 36°08' W 005°26'0 0.0
2017-Jun-25 22:10N 36°08' W 005°26'0 0.1
2017-Jun-25 14:55N 36°09' W 005°26'0 0.0
2017-Jun-25 13:59N 36°09' W 005°26'0 0.0
2017-Jun-25 13:10N 36°09' W 005°26'0 0.0
2017-Jun-25 13:00N 36°09' W 005°26'0 0.0
2017-Jun-25 08:58N 36°09' W 005°26'0 0.6
2017-Jun-25 08:29N 36°09' W 005°26'0 0.0
2017-Jun-25 08:00N 36°09' W 005°26'0 0.0
2017-Jun-25 07:29N 36°09' W 005°26'0 0.0
2017-Jun-25 06:58N 36°09' W 005°26'0 0.0
2017-Jun-25 06:30N 36°09' W 005°26'0 0.0
2017-Jun-25 05:59N 36°09' W 005°26'0 0.0
2017-Jun-25 05:15N 36°09' W 005°26'0 0.0
2017-Jun-25 05:00N 36°09' W 005°26'0 0.0
2017-Jun-25 04:30N 36°09' W 005°26'0 0.0
2017-Jun-25 04:00N 36°09' W 005°26'0 0.0
2017-Jun-25 03:30N 36°09' W 005°26'0 0.0
2017-Jun-25 02:58N 36°09' W 005°26'0 0.0
2017-Jun-25 02:29N 36°09' W 005°26'0 0.0
2017-Jun-25 02:00N 36°09' W 005°26'0 0.0
2017-Jun-25 01:30N 36°09' W 005°26'0 0.0
2017-Jun-25 00:17N 36°09' W 005°26'0 0.0
2017-Jun-25 00:00N 36°09' W 005°26'0 0.0
2017-Jun-24 23:20N 36°09' W 005°26'0 0.1
2017-Jun-24 23:00N 36°09' W 005°26'3 4.9
2017-Jun-24 22:29N 36°11' W 005°24'0 0.3
2017-Jun-24 21:59N 36°11' W 005°24'0 0.0
2017-Jun-24 21:24N 36°11' W 005°24'0 0.0
2017-Jun-24 20:59N 36°11' W 005°24'0 0.0
2017-Jun-24 20:30N 36°11' W 005°24'0 0.0
2017-Jun-24 20:00N 36°11' W 005°24'0 0.0
2017-Jun-24 19:31N 36°11' W 005°24'0 0.0
2017-Jun-24 19:00N 36°11' W 005°24'0 0.0
2017-Jun-24 18:31N 36°11' W 005°24'0 0.0
2017-Jun-24 18:00N 36°11' W 005°24'0 0.0
2017-Jun-24 17:30N 36°11' W 005°24'0 0.0
2017-Jun-24 17:00N 36°11' W 005°24'0 0.0
2017-Jun-24 16:30N 36°11' W 005°24'0 0.0
2017-Jun-24 15:59N 36°11' W 005°24'0 0.7
2017-Jun-24 15:30N 36°11' W 005°23'1 0.1
2017-Jun-24 09:26N 36°10' W 005°23'0 0.2
2017-Jun-24 08:43N 36°10' W 005°23'1 2.2
2017-Jun-24 08:20N 36°09' W 005°24'2 4.6
2017-Jun-24 07:59N 36°09' W 005°26'0 0.1
2017-Jun-24 07:30N 36°09' W 005°26'0 0.0
2017-Jun-24 07:00N 36°09' W 005°26'0 0.0
2017-Jun-24 06:30N 36°09' W 005°26'0 0.0
2017-Jun-24 06:01N 36°09' W 005°26'0 0.0
2017-Jun-24 05:30N 36°09' W 005°26'0 0.0
2017-Jun-24 05:00N 36°09' W 005°26'0 0.0
2017-Jun-24 04:30N 36°09' W 005°26'0 0.0
2017-Jun-24 04:01N 36°09' W 005°26'2 4.7
2017-Jun-24 03:30N 36°11' W 005°24'0 0.0
2017-Jun-24 03:00N 36°11' W 005°24'0 0.0
2017-Jun-24 02:30N 36°11' W 005°24'0 0.0
2017-Jun-24 02:01N 36°11' W 005°24'0 0.0
2017-Jun-24 01:31N 36°11' W 005°24'0 0.0
2017-Jun-24 01:00N 36°11' W 005°24'0 0.0
2017-Jun-24 00:28N 36°11' W 005°24'0 0.0
2017-Jun-24 00:01N 36°11' W 005°24'0 0.0
2017-Jun-23 23:30N 36°11' W 005°24'0 0.0
2017-Jun-23 23:01N 36°11' W 005°24'0 0.0
2017-Jun-23 22:30N 36°11' W 005°24'0 0.0
2017-Jun-23 22:00N 36°11' W 005°24'0 0.0
2017-Jun-23 21:30N 36°11' W 005°24'1 1.3
2017-Jun-23 21:00N 36°10' W 005°25'0 0.3
2017-Jun-23 20:30N 36°10' W 005°25'4 4.0
2017-Jun-23 19:30N 36°06' W 005°24'1 2.2
2017-Jun-23 19:01N 36°05' W 005°24'0 0.2
2017-Jun-23 18:30N 36°05' W 005°24'0 0.0
2017-Jun-23 18:00N 36°05' W 005°24'0 0.1
2017-Jun-23 17:30N 36°05' W 005°24'0 0.1
2017-Jun-23 17:00N 36°05' W 005°24'0 0.1
2017-Jun-23 16:30N 36°05' W 005°24'0 0.1
2017-Jun-23 16:00N 36°05' W 005°24'0 0.1
2017-Jun-23 15:30N 36°05' W 005°24'0 0.1
2017-Jun-23 15:00N 36°05' W 005°24'0 0.1
2017-Jun-23 14:00N 36°05' W 005°24'0 0.1
2017-Jun-23 13:14N 36°05' W 005°24'0 0.0
2017-Jun-23 13:00N 36°05' W 005°24'0 0.0
2017-Jun-23 12:30N 36°05' W 005°24'0 0.0
2017-Jun-23 12:00N 36°05' W 005°24'0 0.0
2017-Jun-23 11:30N 36°05' W 005°24'0 0.1
2017-Jun-23 11:00N 36°05' W 005°24'0 0.2
2017-Jun-23 10:31N 36°05' W 005°24'0 0.1
2017-Jun-23 09:54N 36°05' W 005°24'0 0.1
2017-Jun-23 09:27N 36°05' W 005°24'2 3.6
2017-Jun-23 08:58N 36°07' W 005°25'2 2.6
2017-Jun-23 08:19N 36°08' W 005°26'0 0.1
2017-Jun-23 07:50N 36°08' W 005°26'0 0.0
2017-Jun-23 03:56N 36°08' W 005°26'0 0.0
2017-Jun-23 03:29N 36°08' W 005°26'0 0.0
2017-Jun-23 02:59N 36°08' W 005°26'0 0.0
2017-Jun-23 02:30N 36°08' W 005°26'0 0.0
2017-Jun-23 01:45N 36°08' W 005°26'0 0.0
2017-Jun-23 01:17N 36°08' W 005°26'0 0.0
2017-Jun-23 00:50N 36°08' W 005°26'0 0.0
2017-Jun-23 00:30N 36°08' W 005°26'0 0.0
2017-Jun-22 23:59N 36°08' W 005°26'0 0.0
2017-Jun-22 23:30N 36°08' W 005°26'0 0.0
2017-Jun-22 22:48N 36°08' W 005°26'0 1.0
2017-Jun-22 22:29N 36°08' W 005°26'3 5.5
2017-Jun-22 22:00N 36°11' W 005°24'0 0.0
2017-Jun-22 21:30N 36°11' W 005°24'0 0.0
2017-Jun-22 19:27N 36°11' W 005°24'0 0.0
2017-Jun-22 18:59N 36°11' W 005°24'0 0.0
2017-Jun-22 18:20N 36°11' W 005°24'0 0.0
2017-Jun-22 18:00N 36°11' W 005°24'0 0.0
2017-Jun-22 17:30N 36°11' W 005°24'0 0.0
2017-Jun-22 16:57N 36°11' W 005°24'0 0.0
2017-Jun-22 16:30N 36°11' W 005°24'0 0.0
2017-Jun-22 15:16N 36°11' W 005°24'2 0.9
2017-Jun-22 13:25N 36°10' W 005°26'0 0.1
2017-Jun-22 13:00N 36°10' W 005°26'0 0.0
2017-Jun-22 10:10N 36°10' W 005°26'0 0.0
2017-Jun-22 09:22N 36°10' W 005°26'0 0.1
2017-Jun-22 08:49N 36°10' W 005°26'0 0.1
2017-Jun-22 08:23N 36°10' W 005°26'0 0.1
2017-Jun-22 07:43N 36°10' W 005°26'0 0.1
2017-Jun-22 07:26N 36°10' W 005°26'0 0.0
2017-Jun-22 06:58N 36°10' W 005°26'0 0.0
2017-Jun-22 06:29N 36°10' W 005°26'0 0.0
2017-Jun-22 05:53N 36°10' W 005°26'0 0.0
2017-Jun-22 05:22N 36°10' W 005°26'0 0.1
2017-Jun-22 05:00N 36°10' W 005°26'0 0.0
2017-Jun-22 04:30N 36°10' W 005°26'0 0.0
2017-Jun-22 03:59N 36°10' W 005°26'0 0.0
2017-Jun-22 03:30N 36°10' W 005°26'0 0.0
2017-Jun-22 02:37N 36°10' W 005°26'0 0.0
2017-Jun-22 02:25N 36°10' W 005°26'0 0.1
2017-Jun-22 02:00N 36°10' W 005°26'0 0.4
2017-Jun-22 01:30N 36°10' W 005°26'1 1.5
2017-Jun-22 00:50N 36°09' W 005°26'0 0.4
2017-Jun-22 00:13N 36°09' W 005°26'0 0.0
2017-Jun-21 23:59N 36°09' W 005°26'0 0.0
2017-Jun-21 23:30N 36°09' W 005°26'0 0.0
2017-Jun-21 23:00N 36°09' W 005°26'0 0.0
2017-Jun-21 22:26N 36°09' W 005°26'0 0.0
2017-Jun-21 21:04N 36°09' W 005°26'0 0.1
2017-Jun-21 20:59N 36°09' W 005°26'0 0.0
2017-Jun-21 20:30N 36°09' W 005°26'0 0.0
2017-Jun-21 20:00N 36°09' W 005°26'0 0.0
2017-Jun-21 05:04N 36°09' W 005°26'0 0.0
2017-Jun-21 04:46N 36°09' W 005°26'0 0.0
2017-Jun-21 04:29N 36°09' W 005°26'0 0.0
2017-Jun-20 18:32N 36°08' W 005°26'0 0.6
2017-Jun-20 18:24N 36°08' W 005°26'0 0.4
2017-Jun-20 18:00N 36°08' W 005°26'0 0.0
2017-Jun-20 17:21N 36°08' W 005°26'3 0.2
2017-Jun-20 01:56N 36°06' W 005°24'3 7.1
2017-Jun-20 01:30N 36°08' W 005°25'1 0.1
2017-Jun-19 20:13N 36°09' W 005°26'0 0.0
2017-Jun-19 19:59N 36°09' W 005°26'0 0.0
2017-Jun-19 19:30N 36°09' W 005°26'0 0.0
2017-Jun-19 19:00N 36°09' W 005°26'0 0.0
2017-Jun-19 18:29N 36°09' W 005°26'0 0.0
2017-Jun-19 17:59N 36°09' W 005°26'0 0.0
2017-Jun-19 17:29N 36°09' W 005°26'0 0.0
2017-Jun-19 17:00N 36°09' W 005°26'0 0.0
2017-Jun-19 16:30N 36°09' W 005°26'0 0.0
2017-Jun-19 15:59N 36°09' W 005°26'0 0.0
2017-Jun-19 15:30N 36°09' W 005°26'0 0.1
2017-Jun-19 12:06N 36°09' W 005°26'0 0.2
2017-Jun-19 09:27N 36°08' W 005°26'0 0.0
2017-Jun-19 08:38N 36°08' W 005°26'0 0.0
2017-Jun-19 08:26N 36°08' W 005°26'3 0.4
2017-Jun-19 01:02N 36°11' W 005°24'0 0.0
2017-Jun-19 01:00N 36°11' W 005°24'3 0.5
2017-Jun-18 19:23N 36°09' W 005°26'0 0.0
2017-Jun-18 19:00N 36°09' W 005°26'0 0.0
2017-Jun-18 18:30N 36°09' W 005°26'0 0.0
2017-Jun-18 18:00N 36°09' W 005°26'0 0.0
2017-Jun-18 17:30N 36°09' W 005°26'0 0.0
2017-Jun-18 17:01N 36°09' W 005°26'0 0.0
2017-Jun-18 16:30N 36°09' W 005°26'0 0.0
2017-Jun-18 15:59N 36°09' W 005°26'0 0.0
2017-Jun-18 15:30N 36°09' W 005°26'0 0.0
2017-Jun-18 15:00N 36°09' W 005°26'0 0.0
2017-Jun-18 14:00N 36°09' W 005°26'0 0.0
2017-Jun-18 13:30N 36°09' W 005°26'0 0.0
2017-Jun-18 12:57N 36°09' W 005°26'0 0.0
2017-Jun-18 12:23N 36°09' W 005°26'0 0.8
2017-Jun-18 11:57N 36°08' W 005°26'0 0.6
2017-Jun-18 11:30N 36°08' W 005°26'0 0.0
2017-Jun-18 11:00N 36°08' W 005°26'0 0.0
2017-Jun-18 10:30N 36°08' W 005°26'0 0.0
2017-Jun-18 05:43N 36°08' W 005°26'0 0.0
2017-Jun-18 05:12N 36°08' W 005°26'0 0.0
2017-Jun-18 04:47N 36°08' W 005°26'0 0.0
2017-Jun-18 04:20N 36°08' W 005°26'0 0.0
2017-Jun-18 04:00N 36°08' W 005°26'0 0.1
2017-Jun-17 23:58N 36°08' W 005°26'0 0.0
2017-Jun-17 23:30N 36°08' W 005°26'0 0.0
2017-Jun-17 21:17N 36°08' W 005°26'0 0.0
2017-Jun-17 20:47N 36°08' W 005°26'0 0.0
2017-Jun-17 20:29N 36°08' W 005°26'0 0.0
2017-Jun-17 20:00N 36°08' W 005°26'0 0.0
2017-Jun-17 19:27N 36°08' W 005°26'0 0.0
2017-Jun-17 19:00N 36°08' W 005°26'0 0.0
2017-Jun-17 18:30N 36°08' W 005°26'0 0.0
2017-Jun-17 17:57N 36°08' W 005°26'0 0.0
2017-Jun-17 17:30N 36°08' W 005°26'0 0.0
2017-Jun-17 16:59N 36°08' W 005°26'0 0.0
2017-Jun-17 16:30N 36°08' W 005°26'0 0.0
2017-Jun-17 16:00N 36°08' W 005°26'0 0.0
2017-Jun-17 15:30N 36°08' W 005°26'0 0.0
2017-Jun-17 14:59N 36°08' W 005°26'0 0.0
2017-Jun-17 14:29N 36°08' W 005°26'0 0.0
2017-Jun-17 13:30N 36°08' W 005°26'0 0.0
2017-Jun-17 13:00N 36°08' W 005°26'0 0.0
2017-Jun-17 12:29N 36°08' W 005°26'0 0.0
2017-Jun-17 12:00N 36°08' W 005°26'0 0.0
2017-Jun-17 11:28N 36°08' W 005°26'0 0.0
2017-Jun-17 11:00N 36°08' W 005°26'0 0.0
2017-Jun-17 10:30N 36°08' W 005°26'1 0.3
2017-Jun-17 06:23N 36°10' W 005°26'0 0.0
2017-Jun-17 03:49N 36°10' W 005°26'0 0.0
2017-Jun-17 03:31N 36°10' W 005°26'0 0.0
2017-Jun-17 03:00N 36°10' W 005°26'  

Dump ship's entire track history